Flight NumberIRM4593 Date09.04.2018
Departure AirportOIII Arrival AirportOIKB
Departure Time17.58Arrival Time19.36
Pilot In CommandSaeed TabaTabaei Block Time1.60 Hours
Pilot Rating100 % AircraftEP-MNK [ A300-600 ]


Distance571.00 Nm. Passengers280
Fuel Used9,029 Kg. Cargo12635 Kg
Expense Details Income Details
Fuel Cost9,985 v$Ticket Sales32,760 v$
Pilot Salary3,651 v$ Cargo income21,624.00 v$
Crew Salary1,400 v$ Bonus8,694 v$
Gross Profit48,514 v$ ( 485,140 v$ )

Client Versionv2.2.0.rc3 Max Simrate1
Flight Critique Pilot CommentsOIKB 091730Z 17012KT 3500 HZ NSC 28/23 Q1008 A2978// ASMU1X ILS RWY 21L

[ Back ]
FSA VA Integration Pack
Copyright © 2010 FSAirlines.net. Version : 0.1.1